Terminal Aerodrome Forecast
Issued by NWS

Home | Current Version | Previous Version | Text Only | Print | Product List | Glossary On
Versions: 1 2 3 4 5 6 7 8 9 10 11 12 13 14 15 16 17
000
FTUS41 KPHI 161700
TAFMIV
TAF
KMIV 161725Z 1618/1718 34007G14KT P6SM BKN050
      TEMPO 1619/1623 SCT050
     FM162300 35002KT P6SM FEW050
     FM171200 03004KT P6SM SKC=

USA.gov is the U.S. government's official web portal to all federal, state and local government web resources and services.